Sierra, Nevada
Current Conditions -  °F | °C
As of 4:15 AM on Thursday 29 Jan 2015 (Local Time) from KRTS Reporting Station
Clear Clear  
Wind Chill: -3°   Ceiling: Unl
Heat Index: -3°   Visibility: 10mi
Dew Point: -4°   Wind: 0mph
Humidity: 93%   Direction: NA
Pressure: 30.27"   Gusts: NA
Location:  39.7378°N, 119.889°W
Report Text: KRTS 291215Z AUTO 00000KT 10SM CLR M03/M04 A3027 RMK AO2
Loading
Personal Weather Stations






























Interactive Weather Map New forecast layout! Learn more

10-Day Weather Forecast

Advertisements
Track Severe Weather on mobile